Aérodrome :
LOGIN :

S'inscrire | Disclaimer

   EN    FR    IT 

 










Légende :    VFR   VFR Marginal   IFR   IFR Intensif   IFR Très Intensif
Visi : 
Plafond : 
>= 8 km
>= 3000ft
5 à 8 km
1000 à 3000 ft
1500m à 5 km
500 à 1000 ft
800 à 1500m
200 à 500 ft
< 800m
< 200 ft
Symboles :   Orages  Brouillard  Fortes neiges  Fortes précipitations  Vent > 20 kt
SIGMETs :   Divers  Orages  Givrage  Turbulence  Onde Orograph.  Cendres Volcan.






- Altitude de l'aérodrome : 144 ft
- Code IATA : PGF


LFMP - Perpignan

DERNIER METAR :
  • 221900Z AUTO 26005KT 9999 -RA FEW012/// BKN076/// OVC092/// ///CB 19/18 Q1013 TEMPO SHRA BECMG 12010KT

METARs EXPIRÉS :
  • 221830Z AUTO VRB02KT 6000 -RA FEW014/// SCT060/// OVC076/// ///CB 19/17 Q1013 TEMPO SHRA
  • 221800Z AUTO 28004KT 250V310 9999 -RA FEW014/// SCT052/// BKN068/// ///CB 19/17 Q1013 TEMPO 3000 TSRA BECMG 12010KT
  • 221730Z AUTO 23003KT 9999 TSRA FEW042/// SCT066/// BKN078/// ///CB 20/18 Q1013 TEMPO 3000 TSRA BECMG 12010KT
  • 221700Z AUTO 33007KT 280V020 9999 -RA FEW028/// BKN058/// BKN078/// ///CB 20/18 Q1013 TEMPO 21010KT 3000 TSRA
  • 221630Z AUTO 09005KT 070V130 9999 -RA VCTS FEW052/// BKN062/// BKN072/// ///CB 22/17 Q1012 TEMPO 21010KT 3000 TSRA

TAF AMD TAF LFMP
Valide du 22 à 15h jusqu'au 23 à 15h UTC


221536Z 2215/2315 12010KT 9999 SCT040 BKN060
TEMPO 2215/2222 SHRA FEW030CB BKN060
PROB40
TEMPO 2215/2219 21010KT 3000 TSRA SCT030CB BKN050
BECMG 2221/2224 VRB04KT SCT020 SCT060
BECMG 2309/2311 11010KT BKN018
ATIS : +33 4 68 63 75 12



MET'MAP, la Météo Aéronautique d'un coup d'oeil ! - Copyright ORBIFLY Décembre 2007 - Disclaimer

ORBIFLY MET'MAP TEAM :

Programmation & Développement : Alexandra Zaïnal
Sur une idée originale de : Baudouin d'Aumeries
Assistance à la programmation : Marc-Olivier Méhu
Soutien technique & logistique : Manuel Goepfert

Contact : metmap@orbifly.com




SOURCES & CREDITS :

   NOAA